CheckWX is a tool to help pilots better visualize weather data.  It is not intended as a substitute for an official pre-flight weather briefing.

01:03:21 UTC

KIGM METAR
Kingman Airport
Kingman, Arizona, USA
Current

1 hour ago

KIGM 192351Z AUTO 24016KT 10SM CLR 37/M02 A2998 RMK AO2 SLP075 T03671017 10378 20339 56015
Observed
Aug-19 @ 23:51 UTC
Wind
  • 240° at 16 KTS
Visibility
10 SM
Flight Rules
VFR
Cloud Levels
  • Clear skies
Temperature
37°C / 99°F
Dewpoint
-2°C / 28°F
Humidity
8%
Altimeter
29.98" Hg
Pressure
1015.22 hPa
Previous

2 hours ago

KIGM 192251Z AUTO 22017G21KT 10SM CLR 38/00 A2999 RMK AO2 SLP075 T03780000
Observed
Aug-19 @ 22:51 UTC
Wind
  • 220° at 17 KTS
  • Gusting to 21 KTS
Visibility
10 SM
Flight Rules
VFR
Cloud Levels
  • Clear skies
Temperature
38°C / 100°F
Dewpoint
C / 32°F
Humidity
9%
Altimeter
29.99" Hg
Pressure
1015.62 hPa
Previous

3 hours ago

KIGM 192151Z AUTO 23013G21KT 10SM CLR 37/00 A3001 RMK AO2 PK WND 22026/2057 SLP082 T03720000
Observed
Aug-19 @ 21:51 UTC
Wind
  • 230° at 13 KTS
  • Gusting to 21 KTS
Visibility
10 SM
Flight Rules
VFR
Cloud Levels
  • Clear skies
Temperature
37°C / 99°F
Dewpoint
C / 32°F
Humidity
10%
Altimeter
30.01" Hg
Pressure
1016.22 hPa